Terminal Aerodrome Forecast
Issued by NWS

Home | Current Version | Previous Version | Text Only | Print | Product List | Glossary Off
Versions: 1 2 3 4 5 6 7 8 9 10 11 12 13 14 15

000
FTUS43 KGRB 031136
TAFRHI
TAF
KRHI 031136Z 0312/0412 29004KT P6SM OVC012
     FM031600 27004KT P6SM BKN015
     FM032100 23003KT P6SM BKN025=

USA.gov is the U.S. government's official web portal to all federal, state and local government web resources and services.